Time;durP1;ratioP1;P1;durP2;ratioP2;P2;SDS_P1;SDS_P2;PMS_P1;PMS_P2;Temp;Humidity;BMP_temperature;BMP_pressure;BME280_temperature;BME280_humidity;BME280_pressure;Samples;Min_cycle;Max_cycle;Signal;HPM_P1;HPM_P2
2022/01/19 00:01:26;;;;;;;12.37;8.47;;;2.40;99.90;;;;;;5025865;28;20293;-83
2022/01/19 00:04:23;;;;;;;10.77;8.57;;;1.70;99.90;;;;;;5025114;28;20256;-84
2022/01/19 00:07:00;;;;;;;16.57;9.53;;;3.00;99.90;;;;;;5024961;28;20278;-84
2022/01/19 00:09:37;;;;;;;14.43;9.00;;;2.40;99.90;;;;;;5025088;28;20293;-83
2022/01/19 00:12:03;;;;;;;9.60;8.57;;;2.90;99.90;;;;;;5022542;28;20203;-84
2022/01/19 00:14:30;;;;;;;11.53;7.67;;;2.40;99.90;;;;;;5029959;28;20171;-84
2022/01/19 00:16:56;;;;;;;14.07;8.57;;;2.40;99.90;;;;;;5023344;28;20199;-84
2022/01/19 00:19:25;;;;;;;10.50;7.33;;;3.20;99.90;;;;;;5026817;28;20167;-84
2022/01/19 00:22:14;;;;;;;9.03;7.07;;;1.90;99.90;;;;;;5026068;28;20236;-84
2022/01/19 00:24:43;;;;;;;10.47;7.80;;;2.90;99.90;;;;;;5025678;28;20183;-84
2022/01/19 00:27:12;;;;;;;9.70;7.13;;;2.80;99.90;;;;;;5042518;28;20232;-84
2022/01/19 00:29:41;;;;;;;9.13;7.97;;;2.40;99.90;;;;;;5025173;28;20193;-84
2022/01/19 00:32:09;;;;;;;9.70;8.13;;;3.10;99.90;;;;;;5025561;28;20222;-84
2022/01/19 00:34:41;;;;;;;12.70;7.53;;;1.80;99.90;;;;;;5043056;28;20236;-84
2022/01/19 00:37:25;;;;;;;10.00;7.40;;;2.10;99.90;;;;;;5025184;28;20196;-84
2022/01/19 00:39:52;;;;;;;11.73;7.50;;;2.50;99.90;;;;;;5021785;28;20200;-85
2022/01/19 00:42:23;;;;;;;14.30;8.40;;;2.30;99.90;;;;;;5042409;28;20687;-85
2022/01/19 00:44:49;;;;;;;9.57;7.57;;;2.40;99.90;;;;;;5035252;28;20267;-84
2022/01/19 00:47:18;;;;;;;12.17;7.80;;;2.70;99.90;;;;;;5040344;28;20649;-84
2022/01/19 00:50:11;;;;;;;11.73;7.97;;;2.30;99.90;;;;;;5025549;28;20179;-84
2022/01/19 00:52:40;;;;;;;9.20;8.10;;;2.40;99.90;;;;;;5025501;28;20204;-85
2022/01/19 00:55:37;;;;;;;13.83;8.83;;;2.00;99.90;;;;;;5042251;28;20232;-83
2022/01/19 00:58:45;;;;;;;11.80;8.40;;;2.50;99.90;;;;;;5042326;28;20264;-84
2022/01/19 01:01:38;;;;;;;10.00;8.30;;;2.60;99.90;;;;;;5042485;28;20197;-85
2022/01/19 01:04:06;;;;;;;11.80;8.33;;;2.50;99.90;;;;;;5042714;28;20666;-83
2022/01/19 01:06:35;;;;;;;15.17;8.10;;;2.50;99.90;;;;;;5023592;28;20584;-84
2022/01/19 01:09:07;;;;;;;13.27;9.23;;;2.50;99.90;;;;;;5023932;28;20177;-84
2022/01/19 01:11:47;;;;;;;11.27;8.27;;;3.20;99.90;;;;;;5041003;28;20203;-84
2022/01/19 01:20:22;;;;;;;14.00;9.67;;;3.30;99.90;;;;;;5032239;28;20202;-84
2022/01/19 01:22:50;;;;;;;12.73;9.10;;;2.40;99.90;;;;;;5025138;28;20256;-84
2022/01/19 01:25:16;;;;;;;12.67;8.23;;;2.00;99.90;;;;;;5036424;28;20201;-84
2022/01/19 01:28:02;;;;;;;11.30;8.30;;;2.40;99.90;;;;;;5035252;28;20210;-84
2022/01/19 01:30:37;;;;;;;12.77;8.13;;;3.00;99.90;;;;;;5041863;28;20198;-84
2022/01/19 01:33:12;;;;;;;13.53;8.83;;;2.30;99.90;;;;;;5041331;28;20285;-84
2022/01/19 01:36:05;;;;;;;15.40;8.97;;;3.20;99.90;;;;;;5040706;28;20229;-84
2022/01/19 01:38:37;;;;;;;12.17;8.80;;;2.20;99.90;;;;;;5028346;28;20553;-84
2022/01/19 01:41:15;;;;;;;11.13;9.13;;;2.20;99.90;;;;;;5012716;28;20203;-84
2022/01/19 01:43:45;;;;;;;11.43;8.30;;;2.30;99.90;;;;;;5021779;28;20171;-84
2022/01/19 01:46:42;;;;;;;10.43;8.13;;;3.10;99.90;;;;;;5032624;28;20195;-84
2022/01/19 01:49:15;;;;;;;9.27;8.27;;;3.00;99.90;;;;;;5032099;28;20532;-84
2022/01/19 01:54:25;;;;;;;18.20;9.27;;;2.50;99.90;;;;;;5040049;28;20186;-83
2022/01/19 01:56:55;;;;;;;10.53;8.17;;;2.50;99.90;;;;;;5039315;28;20192;-84
2022/01/19 01:59:45;;;;;;;10.40;9.37;;;3.30;99.90;;;;;;5014645;28;20168;-84
2022/01/19 02:02:10;;;;;;;15.07;9.40;;;2.50;99.90;;;;;;4997411;28;20208;-83
2022/01/19 02:04:40;;;;;;;11.43;8.47;;;3.00;99.90;;;;;;5019624;28;20239;-83
2022/01/19 02:09:55;;;;;;;9.23;7.57;;;2.50;99.90;;;;;;5038088;28;20218;-83
2022/01/19 02:23:45;;;;;;;10.83;7.37;;;2.20;99.90;;;;;;5040587;28;20262;-83
2022/01/19 02:26:18;;;;;;;9.00;7.47;;;2.10;99.90;;;;;;5007939;28;20192;-84
2022/01/19 02:42:37;;;;;;;10.83;8.20;;;2.30;99.90;;;;;;5039786;28;20263;-84
2022/01/19 02:50:14;;;;;;;11.90;8.80;;;2.40;99.90;;;;;;5026840;28;20274;-84
2022/01/19 02:52:40;;;;;;;12.03;8.80;;;2.40;99.90;;;;;;5030619;28;20687;-84
2022/01/19 02:55:06;;;;;;;13.10;8.80;;;2.40;99.90;;;;;;5037084;28;20661;-84
2022/01/19 02:57:35;;;;;;;14.80;9.87;;;2.50;99.90;;;;;;5020812;28;20215;-84
2022/01/19 03:10:58;;;;;;;12.47;9.50;;;2.30;99.90;;;;;;5033773;28;20205;-84
2022/01/19 03:13:23;;;;;;;14.90;9.97;;;2.30;99.90;;;;;;5039310;28;20180;-84
2022/01/19 03:15:49;;;;;;;11.37;8.30;;;2.30;99.90;;;;;;5033239;28;20259;-84
2022/01/19 03:18:14;;;;;;;14.90;8.83;;;2.20;99.90;;;;;;5015560;28;20600;-84
2022/01/19 03:20:40;;;;;;;12.43;8.83;;;2.20;99.90;;;;;;5038876;28;20175;-84
2022/01/19 03:23:17;;;;;;;10.60;8.43;;;2.20;99.90;;;;;;5020631;28;20174;-84
2022/01/19 03:25:43;;;;;;;12.57;8.40;;;2.20;99.90;;;;;;5038704;28;20625;-84
2022/01/19 03:28:09;;;;;;;13.37;8.63;;;2.30;99.90;;;;;;5038615;28;20259;-84
2022/01/19 03:30:34;;;;;;;12.67;8.20;;;2.20;99.90;;;;;;5020286;28;20193;-84
2022/01/19 03:33:00;;;;;;;14.77;8.37;;;2.20;99.90;;;;;;5020831;28;20195;-84
2022/01/19 03:35:26;;;;;;;12.83;8.97;;;2.30;99.90;;;;;;5020329;28;20199;-84
2022/01/19 03:37:52;;;;;;;13.17;9.13;;;2.30;99.90;;;;;;5020287;28;20178;-84
2022/01/19 03:40:18;;;;;;;10.40;7.33;;;2.30;99.90;;;;;;5037880;28;20532;-84
2022/01/19 03:42:43;;;;;;;11.90;8.17;;;2.30;99.90;;;;;;5038229;28;20618;-84
2022/01/19 03:45:10;;;;;;;11.87;7.60;;;2.10;99.90;;;;;;5035696;28;20217;-83
2022/01/19 03:47:44;;;;;;;10.80;8.27;;;2.00;99.90;;;;;;5025551;28;20648;-84
2022/01/19 03:50:10;;;;;;;10.50;7.80;;;2.00;99.90;;;;;;5019632;28;20189;-84
2022/01/19 03:52:36;;;;;;;14.30;8.13;;;2.40;99.90;;;;;;5020912;28;20199;-84
2022/01/19 03:55:03;;;;;;;14.07;9.00;;;2.10;99.90;;;;;;5020298;28;20189;-84
2022/01/19 03:57:28;;;;;;;10.00;8.47;;;2.00;99.90;;;;;;5013238;28;20266;-84
2022/01/19 03:59:54;;;;;;;13.57;8.20;;;2.00;99.90;;;;;;5020251;28;20207;-83
2022/01/19 04:02:20;;;;;;;15.07;8.83;;;2.20;99.90;;;;;;5034649;28;20276;-84
2022/01/19 04:04:55;;;;;;;10.57;8.70;;;2.10;99.90;;;;;;5037840;28;20190;-84
2022/01/19 04:07:21;;;;;;;12.20;8.90;;;2.80;99.90;;;;;;5038263;28;20306;-83
2022/01/19 04:09:47;;;;;;;10.50;8.10;;;2.10;99.90;;;;;;5019271;28;20194;-83
2022/01/19 04:12:19;;;;;;;15.07;9.57;;;2.90;99.90;;;;;;5037121;28;20201;-83
2022/01/19 04:14:45;;;;;;;25.00;12.27;;;2.40;99.90;;;;;;5038204;28;20208;-84
2022/01/19 04:17:13;;;;;;;29.40;16.47;;;2.00;99.90;;;;;;5020241;28;20565;-84
2022/01/19 04:22:07;;;;;;;14.60;11.33;;;2.30;99.90;;;;;;5035637;28;20232;-83
2022/01/19 04:24:42;;;;;;;17.70;11.97;;;2.30;99.90;;;;;;5036451;28;20587;-83
2022/01/19 04:29:53;;;;;;;12.27;10.30;;;2.30;99.90;;;;;;5036835;28;20191;-84
2022/01/19 04:32:25;;;;;;;17.80;11.73;;;2.40;99.90;;;;;;5036240;28;20191;-83
2022/01/19 04:34:52;;;;;;;17.00;11.50;;;2.40;99.90;;;;;;5017626;28;20206;-85
2022/01/19 04:46:09;;;;;;;12.93;10.90;;;2.40;99.90;;;;;;5048775;28;20224;-84
2022/01/19 05:06:52;;;;;;;16.27;11.13;;;2.60;99.90;;;;;;5054741;28;20202;-84
2022/01/19 05:09:52;;;;;;;13.47;11.63;;;2.60;99.90;;;;;;5029804;28;20189;-84
2022/01/19 05:14:56;;;;;;;18.67;12.27;;;2.60;99.90;;;;;;5033095;28;20270;-85
2022/01/19 05:17:23;;;;;;;20.90;13.87;;;2.60;99.90;;;;;;5040190;28;20651;-84
2022/01/19 05:19:48;;;;;;;14.87;11.67;;;2.50;99.90;;;;;;5039669;28;20554;-85
2022/01/19 05:22:14;;;;;;;15.77;12.73;;;2.50;99.90;;;;;;5041444;28;20273;-85
2022/01/19 05:24:39;;;;;;;14.57;11.30;;;2.50;99.90;;;;;;5024554;28;20661;-83
2022/01/19 05:27:05;;;;;;;14.60;11.93;;;2.50;99.90;;;;;;5039654;28;20226;-85
2022/01/19 05:29:31;;;;;;;15.50;12.63;;;2.40;99.90;;;;;;5022680;28;20181;-84
2022/01/19 05:31:57;;;;;;;21.77;13.33;;;2.50;99.90;;;;;;5022990;28;20198;-84
2022/01/19 05:34:22;;;;;;;20.13;13.60;;;2.70;99.90;;;;;;5023198;28;20182;-85
2022/01/19 05:36:48;;;;;;;17.20;12.53;;;3.30;99.90;;;;;;5022089;28;20221;-84
2022/01/19 05:39:14;;;;;;;21.03;13.87;;;2.70;99.90;;;;;;5016032;28;20668;-84
2022/01/19 05:41:39;;;;;;;17.93;13.87;;;3.30;99.90;;;;;;5019600;28;20219;-85
2022/01/19 05:44:05;;;;;;;18.03;13.67;;;2.80;99.90;;;;;;5020186;28;20203;-83
2022/01/19 05:46:32;;;;;;;16.83;13.23;;;2.40;99.90;;;;;;5024737;28;20289;-85
2022/01/19 05:48:58;;;;;;;17.30;12.87;;;2.40;99.90;;;;;;5019545;28;20184;-85
2022/01/19 05:51:27;;;;;;;14.30;12.77;;;2.50;99.90;;;;;;5034029;28;20204;-84
2022/01/19 05:53:53;;;;;;;20.27;13.50;;;3.30;99.90;;;;;;5020140;28;20184;-84
2022/01/19 05:56:19;;;;;;;17.90;13.80;;;3.00;99.90;;;;;;5023407;28;20292;-84
2022/01/19 05:58:44;;;;;;;20.87;14.87;;;2.60;99.90;;;;;;5019822;28;20565;-82
2022/01/19 06:01:10;;;;;;;22.90;14.27;;;2.60;99.90;;;;;;5022369;28;20187;-84
2022/01/19 06:03:36;;;;;;;21.67;15.50;;;2.50;99.90;;;;;;5019946;28;20180;-84
2022/01/19 06:06:01;;;;;;;18.33;14.40;;;2.60;99.90;;;;;;5040293;28;20204;-82
2022/01/19 06:10:55;;;;;;;23.80;15.87;;;2.40;99.90;;;;;;5040870;28;20194;-83
2022/01/19 06:13:24;;;;;;;21.33;15.40;;;2.30;99.90;;;;;;5039593;28;20645;-84
2022/01/19 06:15:50;;;;;;;22.37;16.27;;;2.30;99.90;;;;;;5022696;28;20208;-83
2022/01/19 06:18:17;;;;;;;23.70;15.80;;;2.40;99.90;;;;;;5018248;28;20184;-83
2022/01/19 06:20:44;;;;;;;18.43;15.27;;;2.90;99.90;;;;;;5034764;28;20214;-84
2022/01/19 06:23:13;;;;;;;25.43;16.70;;;2.40;99.90;;;;;;5022480;28;20669;-84
2022/01/19 06:25:39;;;;;;;21.13;15.50;;;3.20;99.90;;;;;;5039636;28;20213;-85
2022/01/19 06:28:05;;;;;;;23.90;17.13;;;2.50;99.90;;;;;;5042868;28;20186;-84
2022/01/19 06:30:31;;;;;;;26.60;17.07;;;3.00;99.90;;;;;;5052923;28;20234;-84
2022/01/19 06:32:57;;;;;;;30.17;18.17;;;2.50;99.90;;;;;;5031162;28;20302;-84
2022/01/19 06:35:23;;;;;;;23.97;17.47;;;3.00;99.90;;;;;;5033340;28;20206;-84
2022/01/19 06:37:55;;;;;;;27.43;17.53;;;2.50;99.90;;;;;;5032957;28;20254;-85
2022/01/19 06:40:25;;;;;;;26.67;18.10;;;2.40;99.90;;;;;;5021786;28;20179;-84
2022/01/19 06:42:52;;;;;;;28.37;17.53;;;3.00;99.90;;;;;;5028970;28;20226;-84
2022/01/19 06:45:17;;;;;;;24.30;17.67;;;2.50;99.90;;;;;;5030181;28;20226;-83
2022/01/19 06:47:43;;;;;;;29.63;19.30;;;2.80;99.90;;;;;;5025805;28;20180;-84
2022/01/19 06:50:19;;;;;;;31.50;20.17;;;2.80;99.90;;;;;;5027554;28;20185;-84
2022/01/19 06:52:45;;;;;;;34.10;20.40;;;2.40;99.90;;;;;;5022849;28;20398;-85
2022/01/19 06:55:11;;;;;;;30.10;19.00;;;2.50;99.90;;;;;;5021836;28;20311;-84
2022/01/19 06:57:37;;;;;;;27.90;18.73;;;3.20;99.90;;;;;;5027101;28;20632;-83
2022/01/19 07:00:04;;;;;;;32.47;19.67;;;2.40;99.90;;;;;;5022525;28;20210;-85
2022/01/19 07:02:30;;;;;;;32.80;20.30;;;2.40;99.90;;;;;;5024785;28;20668;-85
2022/01/19 07:04:56;;;;;;;33.50;19.33;;;2.40;99.90;;;;;;5026448;28;20188;-84
2022/01/19 07:07:22;;;;;;;28.13;19.53;;;2.40;99.90;;;;;;5026771;28;20186;-84
2022/01/19 07:09:49;;;;;;;29.50;19.57;;;2.40;99.90;;;;;;5043324;28;20186;-84
2022/01/19 07:12:15;;;;;;;32.40;20.10;;;3.10;99.90;;;;;;5025419;28;20203;-84
2022/01/19 07:14:41;;;;;;;39.23;20.93;;;2.30;99.90;;;;;;5029902;28;20205;-84
2022/01/19 07:17:07;;;;;;;35.57;20.93;;;2.40;99.90;;;;;;5026071;28;20198;-85
2022/01/19 07:19:33;;;;;;;33.37;20.47;;;2.40;99.90;;;;;;5024084;28;20184;-85
2022/01/19 07:21:59;;;;;;;34.17;20.27;;;2.30;99.90;;;;;;5029541;28;20190;-84
2022/01/19 07:24:25;;;;;;;34.37;20.60;;;2.10;99.90;;;;;;5026732;28;20210;-84
2022/01/19 07:26:59;;;;;;;37.37;20.10;;;2.10;99.90;;;;;;5030239;22;20242;-84
2022/01/19 07:29:49;;;;;;;;;;;;;;;;;;;;;
2022/01/19 07:36:16;;;;;;;34.23;20.63;;;2.00;99.90;;;;;;5024012;28;20225;-84
2022/01/19 07:39:16;;;;;;;40.30;25.13;;;1.80;99.90;;;;;;4942194;29;20189;-84
2022/01/19 07:45:37;;;;;;;;;;;;;;;;;;;;;
2022/01/19 07:49:10;;;;;;;38.67;22.97;;;2.10;99.90;;;;;;5014797;28;20248;-85
2022/01/19 07:51:36;;;;;;;34.67;21.70;;;2.20;99.90;;;;;;4964738;28;20208;-86
2022/01/19 08:03:48;;;;;;;39.07;23.13;;;2.30;99.90;;;;;;4927475;29;20206;-85
2022/01/19 08:07:06;;;;;;;40.07;24.83;;;2.20;99.90;;;;;;4916914;29;20194;-84
2022/01/19 08:09:49;;;;;;;40.63;23.23;;;2.20;99.90;;;;;;5006725;28;20184;-85
2022/01/19 08:15:44;;;;;;;39.77;24.67;;;2.70;99.90;;;;;;5015476;28;20736;-83
2022/01/19 08:18:13;;;;;;;42.47;24.53;;;2.70;99.90;;;;;;5005623;28;20218;-84
2022/01/19 08:20:42;;;;;;;37.37;23.57;;;2.30;99.90;;;;;;5022324;28;20181;-84
2022/01/19 08:23:08;;;;;;;46.70;25.73;;;2.80;99.90;;;;;;5010830;28;20176;-85
2022/01/19 08:25:34;;;;;;;42.73;24.87;;;2.90;99.90;;;;;;5020031;28;20720;-83
2022/01/19 08:28:04;;;;;;;44.13;25.57;;;2.90;99.90;;;;;;5010208;28;20191;-81
2022/01/19 08:30:29;;;;;;;42.17;24.43;;;2.30;99.90;;;;;;5019031;28;20180;-83
2022/01/19 08:32:55;;;;;;;38.53;23.97;;;3.30;99.90;;;;;;5026604;28;20285;-83
2022/01/19 08:35:22;;;;;;;41.37;24.63;;;3.20;99.90;;;;;;5022865;28;20236;-83
2022/01/19 08:37:49;;;;;;;43.10;25.43;;;2.30;99.90;;;;;;5022029;28;20796;-85
2022/01/19 08:40:36;;;;;;;35.47;23.33;;;1.60;99.90;;;;;;5022765;28;20192;-85
2022/01/19 08:43:08;;;;;;;42.23;25.13;;;2.40;99.90;;;;;;5006590;28;20182;-82
2022/01/19 08:45:42;;;;;;;39.43;24.17;;;2.70;99.90;;;;;;5006738;28;20208;-84
2022/01/19 08:48:08;;;;;;;44.00;24.97;;;2.40;99.90;;;;;;5028664;28;20250;-85
2022/01/19 08:50:40;;;;;;;41.87;24.00;;;2.40;99.90;;;;;;5031034;28;20197;-84
2022/01/19 08:53:08;;;;;;;37.47;23.20;;;1.70;99.90;;;;;;5012181;28;20235;-84
2022/01/19 08:55:37;;;;;;;39.23;23.60;;;2.40;99.90;;;;;;5026597;28;20268;-84
2022/01/19 08:58:45;;;;;;;43.93;24.90;;;2.40;99.90;;;;;;5026574;28;20239;-85
2022/01/19 09:01:17;;;;;;;35.80;22.20;;;2.40;99.90;;;;;;5008933;28;20194;-85
2022/01/19 09:04:08;;;;;;;41.10;23.03;;;2.30;99.90;;;;;;5027716;28;20238;-86
2022/01/19 09:06:45;;;;;;;35.67;22.80;;;2.40;99.90;;;;;;5027397;28;20271;-86
2022/01/19 09:09:14;;;;;;;37.90;22.93;;;2.20;99.90;;;;;;5029043;28;20182;-86
2022/01/19 09:11:43;;;;;;;37.70;22.90;;;2.20;99.90;;;;;;5010840;28;20203;-84
2022/01/19 09:14:11;;;;;;;39.03;23.07;;;1.60;99.90;;;;;;5005848;28;20209;-85
2022/01/19 09:16:38;;;;;;;40.73;23.97;;;2.30;99.90;;;;;;5000917;28;20214;-85
2022/01/19 09:19:06;;;;;;;37.17;23.00;;;3.30;99.90;;;;;;5014424;28;20205;-84
2022/01/19 09:21:32;;;;;;;39.40;23.40;;;2.80;99.90;;;;;;5022526;28;20242;-85
2022/01/19 09:23:58;;;;;;;41.17;24.67;;;3.10;99.90;;;;;;5022826;28;20597;-84
2022/01/19 09:26:27;;;;;;;41.27;24.90;;;2.40;99.90;;;;;;5017068;28;20289;-84
2022/01/19 09:28:53;;;;;;;40.37;25.37;;;2.30;99.90;;;;;;5028951;28;20186;-85
2022/01/19 09:31:19;;;;;;;40.23;24.60;;;3.60;99.90;;;;;;5025779;28;20268;-83
2022/01/19 09:33:55;;;;;;;38.20;24.03;;;3.10;99.90;;;;;;5015073;28;20191;-86
2022/01/19 09:38:56;;;;;;;43.50;24.63;;;2.70;99.90;;;;;;5016612;28;20203;-83
2022/01/19 09:41:22;;;;;;;41.27;24.53;;;2.90;99.90;;;;;;5032515;28;20192;-85
2022/01/19 09:43:53;;;;;;;39.80;24.57;;;2.40;99.90;;;;;;5024163;28;20175;-85
2022/01/19 09:46:19;;;;;;;38.13;23.97;;;2.50;99.90;;;;;;5011670;28;20206;-84
2022/01/19 09:48:54;;;;;;;40.03;23.70;;;3.00;99.90;;;;;;5027729;28;20276;-84
2022/01/19 09:51:22;;;;;;;38.53;23.47;;;2.50;99.90;;;;;;5009824;28;20189;-84
2022/01/19 09:53:54;;;;;;;39.17;24.97;;;2.50;99.90;;;;;;5021690;28;20176;-83
2022/01/19 09:56:26;;;;;;;38.50;23.40;;;2.50;99.90;;;;;;5010235;28;20223;-86
2022/01/19 09:58:52;;;;;;;39.07;23.67;;;2.30;99.90;;;;;;5010646;28;20590;-85
2022/01/19 10:01:46;;;;;;;40.40;23.33;;;2.40;99.90;;;;;;5034977;28;20180;-85
2022/01/19 10:04:26;;;;;;;41.03;24.50;;;2.50;99.90;;;;;;4996493;28;20237;-84
2022/01/19 10:07:14;;;;;;;37.77;23.27;;;3.00;99.90;;;;;;5022427;28;20202;-84
2022/01/19 10:10:07;;;;;;;42.73;24.17;;;2.50;99.90;;;;;;5023129;28;20182;-85
2022/01/19 10:18:21;;;;;;;39.10;23.57;;;2.70;99.90;;;;;;5027136;28;20222;-85
2022/01/19 10:21:17;;;;;;;39.17;24.20;;;2.70;99.90;;;;;;5008580;28;20202;-86
2022/01/19 10:24:05;;;;;;;38.87;24.07;;;2.80;99.90;;;;;;5027665;28;20180;-84
2022/01/19 10:26:48;;;;;;;40.27;24.53;;;2.90;99.90;;;;;;5013380;28;20203;-84
2022/01/19 10:29:26;;;;;;;36.60;23.87;;;2.70;99.90;;;;;;5028267;28;20179;-85
2022/01/19 10:32:04;;;;;;;38.93;24.40;;;3.20;99.90;;;;;;5035462;28;20186;-84
2022/01/19 10:34:55;;;;;;;34.60;23.70;;;3.30;99.90;;;;;;5034049;28;20190;-85
2022/01/19 10:37:37;;;;;;;33.47;22.33;;;4.20;99.90;;;;;;5014635;28;20650;-87
2022/01/19 10:40:18;;;;;;;32.63;21.97;;;4.30;99.90;;;;;;5029959;28;20177;-86
2022/01/19 10:42:56;;;;;;;33.30;22.73;;;3.50;99.90;;;;;;5022563;28;20186;-87
2022/01/19 10:45:22;;;;;;;33.53;22.90;;;3.50;99.90;;;;;;5012374;28;20223;-86
2022/01/19 10:48:01;;;;;;;36.50;23.83;;;3.60;99.90;;;;;;5021289;28;20180;-85
2022/01/19 10:51:19;;;;;;;35.97;22.77;;;3.50;99.90;;;;;;5009606;28;20187;-86
2022/01/19 10:54:10;;;;;;;36.00;22.90;;;3.50;99.90;;;;;;4992076;28;20206;-86
2022/01/19 11:00:29;;;;;;;36.90;23.40;;;3.60;99.90;;;;;;4993880;28;20198;-85
2022/01/19 11:03:23;;;;;;;36.13;23.30;;;3.90;99.90;;;;;;5026138;28;20187;-84
2022/01/19 11:06:14;;;;;;;38.17;23.73;;;3.90;99.90;;;;;;5022489;28;20205;-86
2022/01/19 11:08:56;;;;;;;36.17;22.67;;;4.00;99.90;;;;;;5009640;28;20318;-87
2022/01/19 11:12:15;;;;;;;37.70;23.07;;;4.10;99.90;;;;;;5009097;28;20365;-88
2022/01/19 11:15:19;;;;;;;32.27;21.43;;;4.20;99.90;;;;;;5001154;28;20200;-85
2022/01/19 11:17:58;;;;;;;33.33;22.80;;;4.20;99.90;;;;;;5006258;28;20247;-84
2022/01/19 11:20:24;;;;;;;34.53;21.80;;;4.70;99.90;;;;;;5010472;28;20181;-84
2022/01/19 11:23:19;;;;;;;33.40;22.07;;;4.60;99.90;;;;;;5022328;28;20183;-85
2022/01/19 11:28:44;;;;;;;35.60;21.87;;;4.90;99.90;;;;;;1396697;26;20213;-84
2022/01/19 11:31:22;;;;;;;30.73;20.50;;;4.90;99.90;;;;;;5065577;28;20433;-84
2022/01/19 11:34:00;;;;;;;33.80;21.83;;;6.00;99.90;;;;;;5044896;28;20197;-85
2022/01/19 11:37:02;;;;;;;30.13;20.33;;;5.60;99.90;;;;;;5046067;28;20200;-86
2022/01/19 11:40:07;;;;;;;33.50;22.27;;;5.70;99.90;;;;;;5030631;28;20190;-84
2022/01/19 11:46:23;;;;;;;32.80;21.77;;;5.20;99.90;;;;;;4980995;28;20242;-86
2022/01/19 11:49:52;;;;;;;32.80;21.47;;;5.20;99.90;;;;;;5073955;28;20198;-84
2022/01/19 11:53:08;;;;;;;31.90;21.30;;;5.20;99.90;;;;;;5058049;28;20268;-84
2022/01/19 11:56:02;;;;;;;29.57;20.87;;;5.30;99.90;;;;;;5026893;28;20622;-87
2022/01/19 11:59:01;;;;;;;32.30;20.93;;;5.40;99.90;;;;;;5059325;28;20191;-86
2022/01/19 12:02:15;;;;;;;;;;;;;;;;;;;;;
2022/01/19 12:05:53;;;;;;;30.97;21.53;;;5.40;99.90;;;;;;5048589;28;20262;-87
2022/01/19 12:09:06;;;;;;;29.57;19.97;;;5.30;99.90;;;;;;4989917;28;20249;-84
2022/01/19 12:12:43;;;;;;;;;;;;;;;;;;;;;
2022/01/19 12:19:23;;;;;;;29.97;21.03;;;5.50;99.90;;;;;;4955224;29;20273;-86
2022/01/19 12:38:51;;;;;;;22.57;15.80;;;5.30;99.90;;;;;;4946983;29;20254;-87
2022/01/19 12:42:38;;;;;;;;;;;;;;;;;;;;;
2022/01/19 13:01:45;;;;;;;18.67;12.00;;;5.50;99.90;;;;;;4870636;29;20273;-87
2022/01/19 13:08:26;;;;;;;;;;;;;;;;;;;;;
2022/01/19 13:11:50;;;;;;;18.43;11.43;;;5.60;99.90;;;;;;4894358;29;20690;-87
2022/01/19 13:14:20;;;;;;;18.33;11.77;;;5.50;99.90;;;;;;4958712;28;20185;-85
2022/01/19 13:17:16;;;;;;;15.47;10.90;;;5.80;99.90;;;;;;4990305;28;20205;-87
2022/01/19 13:19:47;;;;;;;13.30;11.20;;;5.40;99.90;;;;;;5006094;28;20261;-85
2022/01/19 13:22:13;;;;;;;14.13;10.43;;;5.40;99.90;;;;;;5036080;28;20189;-85
2022/01/19 13:24:42;;;;;;;17.30;11.63;;;5.10;99.90;;;;;;5061182;28;20196;-86
2022/01/19 13:27:11;;;;;;;14.07;11.03;;;5.20;99.90;;;;;;5056413;28;20267;-85
2022/01/19 13:29:42;;;;;;;14.87;10.63;;;5.90;99.90;;;;;;5067212;28;20559;-86
2022/01/19 13:32:20;;;;;;;14.80;10.73;;;4.90;99.90;;;;;;5071022;28;20192;-87
2022/01/19 13:35:02;;;;;;;17.37;11.30;;;5.00;99.90;;;;;;5068367;28;20176;-86
2022/01/19 13:37:54;;;;;;;16.50;10.90;;;4.90;99.90;;;;;;5063770;28;20189;-85
2022/01/19 13:40:37;;;;;;;14.57;12.13;;;4.90;99.90;;;;;;5064198;28;20209;-84
2022/01/19 13:43:18;;;;;;;17.53;12.00;;;4.90;99.90;;;;;;5045095;28;20183;-85
2022/01/19 13:48:28;;;;;;;14.00;11.33;;;5.00;99.90;;;;;;5067476;28;20182;-84
2022/01/19 13:50:58;;;;;;;18.80;11.97;;;4.90;99.90;;;;;;5047243;28;20182;-86
2022/01/19 13:53:37;;;;;;;15.67;11.57;;;4.80;99.90;;;;;;5051030;28;20195;-85
2022/01/19 13:56:24;;;;;;;16.23;12.77;;;4.70;99.90;;;;;;5052279;28;20193;-86
2022/01/19 13:59:08;;;;;;;20.47;12.37;;;4.60;99.90;;;;;;5050634;28;20186;-86
2022/01/19 14:01:57;;;;;;;18.27;12.17;;;4.60;99.90;;;;;;5063970;28;20180;-86
2022/01/19 14:04:24;;;;;;;19.23;11.57;;;5.00;99.90;;;;;;5068650;28;20187;-85
2022/01/19 14:07:17;;;;;;;24.97;14.47;;;4.60;99.90;;;;;;5047280;28;20259;-86
2022/01/19 14:09:55;;;;;;;19.20;12.20;;;4.60;99.90;;;;;;5065699;28;20209;-85
2022/01/19 14:12:30;;;;;;;17.57;11.27;;;5.20;99.90;;;;;;5064071;28;20195;-86
2022/01/19 14:15:01;;;;;;;19.33;12.80;;;4.70;99.90;;;;;;5048212;28;20643;-86
2022/01/19 14:17:31;;;;;;;19.30;12.90;;;4.70;99.90;;;;;;5068741;28;20183;-85
2022/01/19 14:19:58;;;;;;;21.77;13.70;;;4.60;99.90;;;;;;5043727;28;20185;-86
2022/01/19 14:22:26;;;;;;;18.77;13.37;;;3.70;99.90;;;;;;5049785;28;20183;-85
2022/01/19 14:25:00;;;;;;;20.63;12.87;;;4.70;99.90;;;;;;5071062;28;20237;-87
2022/01/19 14:27:35;;;;;;;19.83;12.97;;;4.70;99.90;;;;;;5048795;28;20204;-86
2022/01/19 14:30:32;;;;;;;20.47;13.03;;;4.50;99.90;;;;;;5052902;28;20194;-85
2022/01/19 14:33:12;;;;;;;24.67;13.53;;;5.00;99.90;;;;;;5051779;28;20663;-86
2022/01/19 14:36:01;;;;;;;19.80;13.27;;;4.50;99.90;;;;;;5050036;28;20203;-85
2022/01/19 14:39:33;;;;;;;20.07;13.20;;;4.60;99.90;;;;;;5067010;28;20542;-84
2022/01/19 14:42:31;;;;;;;21.87;14.10;;;4.50;99.90;;;;;;5060565;28;20184;-86
2022/01/19 14:45:47;;;;;;;16.40;12.63;;;4.60;99.90;;;;;;5063871;28;20187;-86
2022/01/19 14:48:42;;;;;;;20.07;13.13;;;4.60;99.90;;;;;;5039154;28;20181;-86
2022/01/19 14:51:40;;;;;;;22.03;14.33;;;4.60;99.90;;;;;;5048546;28;20189;-85
2022/01/19 14:54:29;;;;;;;;;;;;;;;;;;;;;
2022/01/19 14:57:19;;;;;;;21.87;14.70;;;4.50;99.90;;;;;;5069237;28;20280;-85
2022/01/19 14:59:44;;;;;;;21.40;14.93;;;4.60;99.90;;;;;;5047438;28;20196;-85
2022/01/19 15:02:57;;;;;;;24.47;16.30;;;4.30;99.90;;;;;;5073781;28;20189;-85
2022/01/19 15:05:47;;;;;;;26.50;16.03;;;4.70;99.90;;;;;;4990465;28;20219;-85
2022/01/19 15:08:32;;;;;;;30.40;16.20;;;4.10;99.90;;;;;;5031418;28;20183;-86
2022/01/19 15:11:55;;;;;;;;;;;;;;;;;;;;;
2022/01/19 15:14:30;;;;;;;24.13;15.63;;;4.30;99.90;;;;;;5074588;28;20200;-86
2022/01/19 15:17:55;;;;;;;;;;;;;;;;;;;;;
2022/01/19 15:20:40;;;;;;;27.10;16.60;;;4.30;99.90;;;;;;5014271;28;20209;-86
2022/01/19 15:23:14;;;;;;;24.57;16.37;;;4.30;99.90;;;;;;4990494;28;20645;-85
2022/01/19 15:26:03;;;;;;;26.43;16.73;;;4.30;99.90;;;;;;4988985;28;20211;-85
2022/01/19 15:28:41;;;;;;;29.63;17.43;;;4.20;99.90;;;;;;5043471;28;20202;-84
2022/01/19 15:31:22;;;;;;;27.40;16.73;;;4.20;99.90;;;;;;5070383;28;20200;-87
2022/01/19 15:37:39;;;;;;;26.13;16.17;;;4.30;99.90;;;;;;5024385;28;20267;-84
2022/01/19 15:40:45;;;;;;;;;;;;;;;;;;;;;
2022/01/19 15:43:42;;;;;;;28.23;16.37;;;4.20;99.90;;;;;;5070111;28;20216;-86
2022/01/19 15:46:12;;;;;;;26.53;15.63;;;4.10;99.90;;;;;;5054877;28;20211;-86
2022/01/19 15:49:02;;;;;;;24.90;16.70;;;4.60;99.90;;;;;;5062405;28;20183;-87
2022/01/19 15:51:31;;;;;;;22.97;14.70;;;2.80;99.90;;;;;;5002187;28;20192;-87
2022/01/19 15:54:32;;;;;;;25.27;15.60;;;4.10;99.90;;;;;;5053264;28;20182;-87
2022/01/19 15:57:24;;;;;;;22.37;15.23;;;4.00;99.90;;;;;;4980615;28;20215;-84
2022/01/19 16:09:50;;;;;;;26.53;15.77;;;3.90;99.90;;;;;;4989945;28;20208;-87
2022/01/19 16:12:28;;;;;;;22.73;14.07;;;3.90;99.90;;;;;;5062734;28;20208;-87
2022/01/19 16:15:43;;;;;;;26.27;15.27;;;3.40;99.90;;;;;;5068709;28;20181;-86
2022/01/19 16:18:55;;;;;;;21.27;13.77;;;4.90;99.90;;;;;;5030091;28;20199;-84
2022/01/19 16:21:27;;;;;;;23.30;14.67;;;4.90;99.90;;;;;;5055657;28;20188;-85
2022/01/19 16:26:59;;;;;;;21.43;13.87;;;4.00;99.90;;;;;;5061698;28;20225;-85
2022/01/19 16:36:24;;;;;;;19.70;13.13;;;3.90;99.90;;;;;;5008414;28;20215;-85
2022/01/19 16:38:53;;;;;;;21.57;13.47;;;4.00;99.90;;;;;;5046619;28;20225;-86
2022/01/19 16:41:44;;;;;;;23.63;12.97;;;3.90;99.90;;;;;;5051321;28;20260;-85
2022/01/19 16:44:36;;;;;;;21.10;12.87;;;4.00;99.90;;;;;;5044310;28;20263;-85
2022/01/19 16:47:31;;;;;;;;;;;;;;;;;;;;;
2022/01/19 16:53:44;;;;;;;;;;;;;;;;;;;;;
2022/01/19 16:57:52;;;;;;;;;;;;;;;;;;;;;
2022/01/19 17:00:34;;;;;;;14.17;9.43;;;3.80;99.90;;;;;;5060983;28;20188;-85
2022/01/19 17:03:42;;;;;;;11.70;8.40;;;3.30;99.90;;;;;;4988102;28;20201;-84
2022/01/19 17:06:28;;;;;;;10.30;8.50;;;3.70;99.90;;;;;;5043108;28;20195;-85
2022/01/19 17:09:25;;;;;;;12.03;8.90;;;4.00;99.90;;;;;;5046998;28;20194;-86
2022/01/19 17:11:59;;;;;;;11.57;7.67;;;3.10;99.90;;;;;;5061814;28;20263;-85